Time;durP1;ratioP1;P1;durP2;ratioP2;P2;SDS_P1;SDS_P2;PMS_P1;PMS_P2;Temp;Humidity;BMP_temperature;BMP_pressure;BME280_temperature;BME280_humidity;BME280_pressure;Samples;Min_cycle;Max_cycle;Signal;HPM_P1;HPM_P2
2023/03/09 00:02:06;;;;;;;28.30;14.35;;;;;;;0.49;100.00;98872.13;5070443;28;20119;-72
2023/03/09 00:04:31;;;;;;;27.73;13.88;;;;;;;0.49;100.00;98864.19;5074267;28;20544;-72
2023/03/09 00:06:57;;;;;;;28.45;13.20;;;;;;;0.48;100.00;98863.38;5073915;28;20407;-72
2023/03/09 00:09:22;;;;;;;27.63;13.82;;;;;;;0.50;100.00;98853.53;5073717;28;20060;-72
2023/03/09 00:11:49;;;;;;;29.35;13.60;;;;;;;0.50;100.00;98860.63;5067487;28;20036;-72
2023/03/09 00:14:16;;;;;;;27.17;13.27;;;;;;;0.48;100.00;98854.56;5073100;28;20105;-72
2023/03/09 00:16:42;;;;;;;28.02;13.45;;;;;;;0.47;100.00;98832.59;5066220;28;20024;-72
2023/03/09 00:19:08;;;;;;;28.27;14.25;;;;;;;0.50;100.00;98815.69;5074099;28;20032;-72
2023/03/09 00:21:34;;;;;;;29.67;14.43;;;;;;;0.50;100.00;98863.25;5073757;28;20025;-72
2023/03/09 00:24:08;;;;;;;28.17;13.70;;;;;;;0.51;100.00;98875.50;5073231;28;20561;-72
2023/03/09 00:26:36;;;;;;;29.45;14.15;;;;;;;0.51;100.00;98888.72;5073299;28;20032;-72
2023/03/09 00:29:02;;;;;;;29.77;13.98;;;;;;;0.52;100.00;98895.72;5070396;28;20032;-72
2023/03/09 00:31:27;;;;;;;29.90;14.73;;;;;;;0.53;100.00;98897.44;5070764;28;20032;-72
2023/03/09 00:33:52;;;;;;;28.73;14.77;;;;;;;0.53;100.00;98905.34;5070051;28;20028;-72
2023/03/09 00:36:18;;;;;;;30.20;15.32;;;;;;;0.50;100.00;98916.13;5072453;28;20028;-72
2023/03/09 00:38:48;;;;;;;28.13;13.75;;;;;;;0.48;100.00;98918.88;5073092;28;20462;-72
2023/03/09 00:41:14;;;;;;;28.67;14.52;;;;;;;0.49;100.00;98909.13;5076104;28;20075;-71
2023/03/09 00:43:39;;;;;;;31.02;15.77;;;;;;;0.50;100.00;98916.13;5071989;28;20070;-72
2023/03/09 00:46:04;;;;;;;31.52;15.88;;;;;;;0.51;100.00;98923.09;5073461;28;20036;-72
2023/03/09 00:48:29;;;;;;;30.35;15.90;;;;;;;0.52;100.00;98922.16;5073465;28;20048;-72
2023/03/09 00:50:55;;;;;;;27.00;13.95;;;;;;;0.52;100.00;98930.09;5073383;28;20028;-72
2023/03/09 00:53:20;;;;;;;29.35;14.40;;;;;;;0.53;100.00;98926.50;5070453;28;20111;-72
2023/03/09 00:55:45;;;;;;;30.85;15.13;;;;;;;0.54;100.00;98928.19;5072672;28;20035;-72
2023/03/09 00:58:10;;;;;;;29.65;14.75;;;;;;;0.54;100.00;98943.19;5069518;28;20020;-72
2023/03/09 01:00:37;;;;;;;29.80;14.40;;;;;;;0.53;100.00;98955.56;5068556;28;20382;-72
2023/03/09 01:03:03;;;;;;;27.35;13.98;;;;;;;0.53;100.00;98952.94;5071047;28;20494;-72
2023/03/09 01:05:28;;;;;;;28.02;13.77;;;;;;;0.52;100.00;98953.88;5072825;28;20040;-72
2023/03/09 01:07:54;;;;;;;28.10;14.52;;;;;;;0.54;100.00;98969.63;5073244;28;20025;-72
2023/03/09 01:10:19;;;;;;;28.35;15.20;;;;;;;0.54;100.00;98981.03;5073353;28;20108;-72
2023/03/09 01:12:44;;;;;;;29.35;13.48;;;;;;;0.54;100.00;99002.19;5072842;28;20020;-72
2023/03/09 01:15:11;;;;;;;30.35;14.65;;;;;;;0.57;100.00;99014.38;5072349;28;20089;-72
2023/03/09 01:17:36;;;;;;;29.40;14.23;;;;;;;0.58;100.00;98994.94;5071956;28;20024;-72
2023/03/09 01:20:03;;;;;;;29.27;14.50;;;;;;;0.58;100.00;98987.00;5069603;28;20020;-72
2023/03/09 01:22:28;;;;;;;29.00;14.90;;;;;;;0.55;100.00;99003.06;5070991;28;20028;-72
2023/03/09 01:24:54;;;;;;;29.45;14.93;;;;;;;0.55;100.00;98989.84;5063245;28;20509;-72
2023/03/09 01:27:19;;;;;;;27.52;13.35;;;;;;;0.55;100.00;98998.59;5071776;28;20388;-72
2023/03/09 01:29:44;;;;;;;27.55;13.98;;;;;;;0.55;100.00;99009.19;5071148;28;20119;-72
2023/03/09 01:32:09;;;;;;;29.42;13.98;;;;;;;0.56;100.00;99016.19;5069565;28;20809;-72
2023/03/09 01:34:35;;;;;;;30.00;13.15;;;;;;;0.58;100.00;99040.72;5071970;28;20047;-72
2023/03/09 01:37:00;;;;;;;28.40;13.15;;;;;;;0.60;100.00;99030.03;5071208;28;20033;-72
2023/03/09 01:39:25;;;;;;;28.65;14.02;;;;;;;0.62;100.00;99026.38;5072977;28;20028;-72
2023/03/09 01:41:51;;;;;;;28.00;13.15;;;;;;;0.62;100.00;99036.09;5064856;28;20028;-72
2023/03/09 01:44:16;;;;;;;27.73;13.68;;;;;;;0.59;100.00;99025.72;5071793;28;20399;-72
2023/03/09 01:46:48;;;;;;;26.63;13.85;;;;;;;0.59;100.00;99023.91;5072300;28;20032;-72
2023/03/09 01:49:31;;;;;;;28.27;13.63;;;;;;;0.62;100.00;99029.00;5070564;28;20456;-72
2023/03/09 01:52:38;;;;;;;30.85;14.85;;;;;;;0.60;100.00;99036.19;5071430;28;20052;-72
2023/03/09 01:55:08;;;;;;;28.70;14.43;;;;;;;0.66;100.00;99037.63;5006771;28;20396;-72
2023/03/09 01:57:38;;;;;;;30.98;14.55;;;;;;;0.65;100.00;99047.31;5026164;28;20025;-72
2023/03/09 02:00:12;;;;;;;27.88;14.65;;;;;;;0.65;100.00;99043.84;5028895;28;20120;-72
2023/03/09 02:02:40;;;;;;;30.08;15.75;;;;;;;0.67;100.00;99061.31;5021332;28;20034;-70
2023/03/09 02:05:12;;;;;;;28.30;13.95;;;;;;;0.67;100.00;99063.97;5028642;28;20100;-70
2023/03/09 02:07:42;;;;;;;32.53;15.13;;;;;;;0.67;100.00;99061.31;5013311;28;20041;-76
2023/03/09 02:10:38;;;;;;;28.50;15.23;;;;;;;0.69;100.00;99074.44;5030049;28;20475;-76
2023/03/09 02:13:08;;;;;;;31.02;15.23;;;;;;;0.69;100.00;99069.16;5014971;28;20116;-76
2023/03/09 02:15:34;;;;;;;33.15;15.95;;;;;;;0.69;100.00;99063.88;5030128;28;20033;-76
2023/03/09 02:18:00;;;;;;;32.92;16.15;;;;;;;0.70;100.00;99060.25;5029206;28;20029;-76
2023/03/09 02:20:32;;;;;;;30.63;15.60;;;;;;;0.67;100.00;99055.16;5029195;28;20048;-76
2023/03/09 02:22:58;;;;;;;31.40;16.33;;;;;;;0.63;100.00;99057.16;5010087;28;20493;-75
2023/03/09 02:25:34;;;;;;;32.17;15.63;;;;;;;0.66;100.00;99064.06;5036541;28;20045;-76
2023/03/09 02:28:00;;;;;;;30.30;14.45;;;;;;;0.65;100.00;99055.25;5070515;28;20086;-75
2023/03/09 02:30:28;;;;;;;31.95;16.15;;;;;;;0.64;100.00;99053.53;5070281;28;20511;-76
2023/03/09 02:33:05;;;;;;;31.38;15.95;;;;;;;0.67;100.00;99066.59;5066656;28;20043;-76
2023/03/09 02:35:30;;;;;;;31.50;15.48;;;;;;;0.66;100.00;99079.91;5070286;28;20375;-76
2023/03/09 02:37:56;;;;;;;32.53;17.50;;;;;;;0.68;100.00;99084.16;5069119;28;20025;-76
2023/03/09 02:40:31;;;;;;;29.42;14.05;;;;;;;0.71;100.00;99087.56;5070390;28;20430;-76
2023/03/09 02:42:57;;;;;;;32.85;17.63;;;;;;;0.73;100.00;99098.88;5070278;28;20111;-75
2023/03/09 02:45:22;;;;;;;33.33;17.13;;;;;;;0.68;100.00;99089.44;5070978;28;20020;-76
2023/03/09 02:47:49;;;;;;;30.98;18.10;;;;;;;0.69;100.00;99090.31;5067714;28;20017;-76
2023/03/09 02:50:16;;;;;;;29.77;15.38;;;;;;;0.68;100.00;99089.44;5063406;28;20480;-76
2023/03/09 02:52:41;;;;;;;33.85;16.23;;;;;;;0.69;100.00;99093.78;5070217;28;20033;-76
2023/03/09 02:55:07;;;;;;;31.80;16.67;;;;;;;0.67;100.00;99093.03;5067388;28;20021;-76
2023/03/09 02:57:33;;;;;;;32.60;16.58;;;;;;;0.66;100.00;99085.22;5070077;28;20033;-76
2023/03/09 02:59:59;;;;;;;30.65;14.88;;;;;;;0.68;100.00;99083.31;5070883;28;20392;-75
2023/03/09 03:02:24;;;;;;;32.10;15.98;;;;;;;0.67;100.00;99077.19;5068143;28;20120;-76
2023/03/09 03:04:49;;;;;;;30.05;14.80;;;;;;;0.67;100.00;99079.81;5070711;28;20024;-76
2023/03/09 03:07:15;;;;;;;31.55;16.33;;;;;;;0.67;100.00;99092.19;5069227;28;20103;-75
2023/03/09 03:09:40;;;;;;;32.25;17.00;;;;;;;0.66;100.00;99093.16;5065437;28;20034;-76
2023/03/09 03:12:06;;;;;;;30.58;15.40;;;;;;;0.65;100.00;99089.63;5071480;28;20475;-76
2023/03/09 03:14:31;;;;;;;33.60;18.48;;;;;;;0.65;100.00;99091.44;5071470;28;20430;-76
2023/03/09 03:16:57;;;;;;;32.40;15.85;;;;;;;0.64;100.00;99090.56;5071611;28;20047;-76
2023/03/09 03:19:22;;;;;;;31.58;17.65;;;;;;;0.63;100.00;99094.16;5071227;28;20043;-75
2023/03/09 03:21:48;;;;;;;33.70;17.15;;;;;;;0.60;100.00;99089.06;5069919;28;20052;-75
2023/03/09 03:24:14;;;;;;;31.92;15.82;;;;;;;0.60;100.00;99094.34;5073685;28;20021;-75
2023/03/09 03:26:40;;;;;;;33.20;17.83;;;;;;;0.60;100.00;99097.00;5073593;28;20036;-75
2023/03/09 03:29:05;;;;;;;33.60;17.95;;;;;;;0.62;100.00;99107.47;5074842;28;20024;-76
2023/03/09 03:31:31;;;;;;;35.88;18.77;;;;;;;0.61;100.00;99111.06;5073725;28;20069;-75
2023/03/09 03:33:56;;;;;;;30.17;16.42;;;;;;;0.59;100.00;99124.38;5073674;28;20115;-76
2023/03/09 03:36:21;;;;;;;30.92;17.10;;;;;;;0.60;100.00;99149.88;5073733;28;20365;-76
2023/03/09 03:38:46;;;;;;;33.13;16.17;;;;;;;0.64;100.00;99158.47;5074473;28;20035;-75
2023/03/09 03:41:12;;;;;;;35.00;17.60;;;;;;;0.66;100.00;99165.38;5067002;28;20032;-74
2023/03/09 03:43:37;;;;;;;31.35;18.27;;;;;;;0.67;100.00;99158.28;5071783;28;20472;-75
2023/03/09 03:46:02;;;;;;;32.95;16.88;;;;;;;0.68;100.00;99165.28;5073519;28;20107;-75
2023/03/09 03:48:27;;;;;;;33.80;18.35;;;;;;;0.67;100.00;99172.38;5071640;28;20025;-76
2023/03/09 03:50:53;;;;;;;34.30;18.30;;;;;;;0.67;100.00;99166.22;5073918;28;20078;-76
2023/03/09 03:53:18;;;;;;;34.10;19.02;;;;;;;0.65;100.00;99154.88;5071429;28;20108;-76
2023/03/09 03:55:44;;;;;;;40.40;20.30;;;;;;;0.65;100.00;99153.09;5073600;28;20025;-75
2023/03/09 03:58:09;;;;;;;35.78;19.10;;;;;;;0.66;100.00;99170.66;5069408;28;20051;-76
2023/03/09 04:00:35;;;;;;;34.97;18.52;;;;;;;0.67;100.00;99166.22;5072470;28;20020;-76
2023/03/09 04:03:00;;;;;;;35.10;19.23;;;;;;;0.65;100.00;99168.09;5073567;28;20416;-76
2023/03/09 04:05:26;;;;;;;36.28;19.60;;;;;;;0.66;100.00;99168.00;5072814;28;20059;-76
2023/03/09 04:07:51;;;;;;;38.90;20.73;;;;;;;0.66;100.00;99165.38;5060880;28;20033;-75
2023/03/09 04:10:17;;;;;;;35.17;19.90;;;;;;;0.66;100.00;99170.66;5073468;28;20020;-76
2023/03/09 04:12:42;;;;;;;38.20;19.90;;;;;;;0.67;100.00;99177.66;5072954;28;20024;-76
2023/03/09 04:15:08;;;;;;;39.13;20.95;;;;;;;0.67;100.00;99182.94;5073252;28;20025;-76
2023/03/09 04:17:33;;;;;;;35.95;21.77;;;;;;;0.68;100.00;99187.25;5072251;28;20498;-76
2023/03/09 04:19:58;;;;;;;37.13;22.27;;;;;;;0.67;100.00;99196.16;5042656;28;20027;-76
2023/03/09 04:22:24;;;;;;;37.40;20.73;;;;;;;0.66;100.00;99199.75;5068182;28;20067;-75
2023/03/09 04:24:49;;;;;;;37.38;19.90;;;;;;;0.67;100.00;99196.16;5071799;28;20112;-76
2023/03/09 04:27:15;;;;;;;38.10;22.48;;;;;;;0.68;100.00;99195.19;5054821;28;20179;-75
2023/03/09 04:29:40;;;;;;;39.22;21.30;;;;;;;0.68;100.00;99208.41;5055559;28;20545;-76
2023/03/09 04:32:06;;;;;;;40.10;22.85;;;;;;;0.69;100.00;99204.84;5073869;28;20024;-76
2023/03/09 04:34:31;;;;;;;38.40;23.33;;;;;;;0.72;100.00;99209.09;5071752;28;20024;-76
2023/03/09 04:36:57;;;;;;;46.78;23.42;;;;;;;0.71;100.00;99214.47;5055044;28;20120;-76
2023/03/09 04:39:23;;;;;;;34.97;19.33;;;;;;;0.69;100.00;99215.41;5073440;28;20035;-76
2023/03/09 04:41:48;;;;;;;41.03;22.48;;;;;;;0.66;100.00;99212.13;5073407;28;20063;-75
2023/03/09 04:44:14;;;;;;;44.05;23.27;;;;;;;0.65;100.00;99227.09;5049820;28;20476;-75
2023/03/09 04:46:39;;;;;;;42.05;25.65;;;;;;;0.64;100.00;99225.41;5051527;28;20388;-76
2023/03/09 04:49:04;;;;;;;41.72;24.33;;;;;;;0.66;100.00;99220.88;5053744;28;20119;-75
2023/03/09 04:51:30;;;;;;;38.22;23.17;;;;;;;0.65;100.00;99231.56;5050756;28;20081;-76
2023/03/09 04:53:55;;;;;;;44.10;24.00;;;;;;;0.66;100.00;99239.41;5054588;28;20066;-76
2023/03/09 04:56:21;;;;;;;43.15;24.05;;;;;;;0.67;100.00;99237.59;5054533;28;20093;-75
2023/03/09 04:58:46;;;;;;;43.70;22.00;;;;;;;0.68;100.00;99242.78;5054064;28;20028;-76
2023/03/09 05:01:12;;;;;;;41.05;23.80;;;;;;;0.67;100.00;99235.81;5069479;28;20016;-76
2023/03/09 05:03:37;;;;;;;41.15;22.10;;;;;;;0.66;100.00;99239.41;5071453;28;20085;-73
2023/03/09 05:06:02;;;;;;;42.95;24.45;;;;;;;0.66;100.00;99252.63;5071219;28;20470;-76
2023/03/09 05:08:28;;;;;;;43.42;25.60;;;;;;;0.66;100.00;99251.78;5052517;28;20043;-75
2023/03/09 05:10:53;;;;;;;42.67;24.95;;;;;;;0.66;100.00;99259.72;5047262;28;20495;-75
2023/03/09 05:13:18;;;;;;;45.85;25.50;;;;;;;0.65;100.00;99268.56;5052931;28;20104;-75
2023/03/09 05:15:44;;;;;;;44.88;27.38;;;;;;;0.65;100.00;99271.22;5068446;28;20466;-75
2023/03/09 05:18:10;;;;;;;43.22;23.27;;;;;;;0.64;100.00;99280.91;5070383;28;20479;-75
2023/03/09 05:20:37;;;;;;;45.88;26.58;;;;;;;0.65;100.00;99300.28;5071576;28;20475;-75
2023/03/09 05:23:03;;;;;;;51.47;28.27;;;;;;;0.65;100.00;99292.38;5071716;28;20029;-75
2023/03/09 05:25:28;;;;;;;46.10;26.92;;;;;;;0.67;100.00;99286.06;5071335;28;20055;-76
2023/03/09 05:27:54;;;;;;;42.33;25.55;;;;;;;0.68;100.00;99290.38;5053942;28;20515;-76
2023/03/09 05:30:19;;;;;;;45.80;27.05;;;;;;;0.67;100.00;99278.13;5070991;28;20029;-76
2023/03/09 05:32:51;;;;;;;45.15;26.55;;;;;;;0.67;100.00;99283.41;5070607;28;20023;-75
2023/03/09 05:35:18;;;;;;;43.83;25.75;;;;;;;0.68;100.00;99293.03;5053873;28;20025;-76
2023/03/09 05:37:44;;;;;;;47.97;26.75;;;;;;;0.68;100.00;99295.66;5071907;28;20099;-76
2023/03/09 05:40:11;;;;;;;51.72;29.50;;;;;;;0.68;100.00;99298.31;5072022;28;20158;-75
2023/03/09 05:42:36;;;;;;;48.80;31.23;;;;;;;0.69;100.00;99289.44;5049317;28;20027;-76
2023/03/09 05:45:04;;;;;;;48.22;28.25;;;;;;;0.69;100.00;99281.53;5072102;28;20020;-76
2023/03/09 05:47:30;;;;;;;51.20;29.83;;;;;;;0.69;100.00;99286.81;5052638;28;20041;-75
2023/03/09 05:49:55;;;;;;;51.65;30.55;;;;;;;0.69;100.00;99284.16;5047745;28;20499;-75
2023/03/09 05:52:20;;;;;;;49.17;29.30;;;;;;;0.71;100.00;99281.44;5054140;28;20013;-75
2023/03/09 05:54:46;;;;;;;48.22;31.23;;;;;;;0.71;100.00;99286.72;5071695;28;20081;-75
2023/03/09 05:57:12;;;;;;;50.70;29.35;;;;;;;0.72;100.00;99308.72;5051495;28;20033;-76
2023/03/09 05:59:37;;;;;;;48.40;28.73;;;;;;;0.73;100.00;99318.34;5071337;28;20434;-75
2023/03/09 06:02:03;;;;;;;51.90;30.58;;;;;;;0.72;100.00;99314.88;5069608;28;20061;-76
2023/03/09 06:04:28;;;;;;;43.47;26.42;;;;;;;0.72;100.00;99306.94;5068374;28;20368;-76
2023/03/09 06:06:54;;;;;;;53.10;30.52;;;;;;;0.72;100.00;99314.88;5068646;28;20055;-75
2023/03/09 06:09:19;;;;;;;50.17;30.55;;;;;;;0.74;100.00;99310.34;5068272;28;20028;-76
2023/03/09 06:11:44;;;;;;;49.05;31.83;;;;;;;0.75;100.00;99305.88;5069781;28;20024;-76
2023/03/09 06:14:09;;;;;;;42.63;28.17;;;;;;;0.78;100.00;99305.75;5070811;28;20028;-75
2023/03/09 06:16:35;;;;;;;50.60;30.60;;;;;;;0.80;100.00;99325.84;5053180;28;20060;-76
2023/03/09 06:19:00;;;;;;;52.45;28.80;;;;;;;0.80;100.00;99325.00;5065909;28;20047;-75
2023/03/09 06:21:26;;;;;;;49.55;30.02;;;;;;;0.81;100.00;99342.59;5068632;28;20044;-76
2023/03/09 06:23:55;;;;;;;54.53;30.90;;;;;;;0.79;100.00;99334.75;5069135;28;20040;-76
2023/03/09 06:26:20;;;;;;;50.00;29.13;;;;;;;0.80;100.00;99335.59;5070648;28;20028;-76
2023/03/09 06:28:46;;;;;;;51.40;30.98;;;;;;;0.80;100.00;99343.50;5071472;28;20029;-76
2023/03/09 06:31:13;;;;;;;52.17;28.95;;;;;;;0.79;100.00;99345.31;5071659;28;20021;-75
2023/03/09 06:33:40;;;;;;;48.90;28.95;;;;;;;0.81;100.00;99347.88;5070104;28;20033;-78
2023/03/09 06:36:07;;;;;;;49.05;28.75;;;;;;;0.81;100.00;99346.06;5071061;28;20028;-73
2023/03/09 06:38:33;;;;;;;50.28;33.22;;;;;;;0.81;100.00;99359.28;5036136;28;20024;-73
2023/03/09 06:40:58;;;;;;;45.85;28.33;;;;;;;0.83;100.00;99373.28;5052601;28;20551;-73
2023/03/09 06:43:23;;;;;;;48.60;28.63;;;;;;;0.84;100.00;99366.22;5054078;28;20067;-73
2023/03/09 06:45:49;;;;;;;48.03;30.90;;;;;;;0.84;100.00;99372.34;5069910;28;20029;-72
2023/03/09 06:48:15;;;;;;;47.65;29.95;;;;;;;0.84;100.00;99379.44;5069332;28;20047;-71
2023/03/09 06:50:40;;;;;;;45.28;28.50;;;;;;;0.84;100.00;99374.97;5070679;28;20036;-72
2023/03/09 06:53:06;;;;;;;46.72;29.00;;;;;;;0.84;100.00;99387.38;5050187;28;20049;-71
2023/03/09 06:55:31;;;;;;;46.42;28.85;;;;;;;0.83;100.00;99389.13;5066961;28;20047;-73
2023/03/09 06:57:56;;;;;;;50.55;30.45;;;;;;;0.85;100.00;99392.56;5072119;28;20096;-72
2023/03/09 07:00:22;;;;;;;47.03;28.73;;;;;;;0.86;100.00;99398.69;5055573;28;20032;-72
2023/03/09 07:02:47;;;;;;;47.53;29.17;;;;;;;0.87;100.00;99408.34;5057535;28;20024;-70
2023/03/09 07:05:13;;;;;;;46.10;28.02;;;;;;;0.86;100.00;99414.56;5075292;28;20576;-71
2023/03/09 07:07:41;;;;;;;45.70;30.27;;;;;;;0.88;100.00;99423.28;5071297;28;20032;-73
2023/03/09 07:10:07;;;;;;;47.35;27.98;;;;;;;0.89;100.00;99426.78;5075233;28;20071;-72
2023/03/09 07:12:32;;;;;;;44.45;28.13;;;;;;;0.87;100.00;99433.00;5075365;28;20064;-72
2023/03/09 07:14:57;;;;;;;46.95;27.60;;;;;;;0.89;100.00;99447.94;5073990;28;20020;-72
2023/03/09 07:17:23;;;;;;;48.10;30.05;;;;;;;0.89;100.00;99455.88;5044492;28;20037;-71
2023/03/09 07:19:48;;;;;;;48.33;29.75;;;;;;;0.92;100.00;99461.84;5075428;28;20029;-72
2023/03/09 07:22:13;;;;;;;50.28;29.10;;;;;;;0.94;100.00;99454.69;5072425;28;20040;-72
2023/03/09 07:24:39;;;;;;;49.70;28.52;;;;;;;0.95;100.00;99458.16;5070490;28;20048;-74
2023/03/09 07:27:07;;;;;;;44.00;27.45;;;;;;;0.97;100.00;99459.78;5067750;28;20028;-74
2023/03/09 07:29:33;;;;;;;49.05;28.42;;;;;;;0.96;100.00;99458.09;5072843;28;20043;-71
2023/03/09 07:32:01;;;;;;;49.55;29.65;;;;;;;0.96;100.00;99468.66;5055256;28;20392;-72
2023/03/09 07:34:27;;;;;;;46.90;28.02;;;;;;;0.96;100.00;99463.38;5066614;28;20020;-72
2023/03/09 07:36:52;;;;;;;54.08;29.25;;;;;;;0.98;100.00;99468.56;5069774;28;20036;-72
2023/03/09 07:39:17;;;;;;;44.22;27.08;;;;;;;0.96;100.00;99487.19;5052197;28;20081;-72
2023/03/09 07:41:43;;;;;;;46.22;29.00;;;;;;;0.99;100.00;99494.94;5053968;28;20481;-73
2023/03/09 07:44:08;;;;;;;44.92;26.70;;;;;;;1.01;100.00;99501.03;5063608;28;20040;-72
2023/03/09 07:46:34;;;;;;;43.05;26.08;;;;;;;1.01;100.00;99493.09;5068730;28;20033;-73
2023/03/09 07:48:59;;;;;;;50.45;30.73;;;;;;;1.02;100.00;99497.41;5054802;28;20043;-73
2023/03/09 07:51:25;;;;;;;46.13;29.52;;;;;;;1.03;100.00;99501.78;5067585;28;20144;-72
2023/03/09 07:53:50;;;;;;;47.50;26.40;;;;;;;1.06;100.00;99508.69;5067266;28;20037;-72
2023/03/09 07:56:15;;;;;;;45.60;27.02;;;;;;;1.07;100.00;99502.47;5049936;28;20032;-72
2023/03/09 07:58:41;;;;;;;43.92;26.83;;;;;;;1.07;100.00;99491.91;5069608;28;20047;-72
2023/03/09 08:01:13;;;;;;;42.40;26.02;;;;;;;1.11;100.00;99503.16;5072026;28;20033;-72
2023/03/09 08:03:38;;;;;;;47.60;25.75;;;;;;;1.11;100.00;99509.28;5067499;28;20082;-72
2023/03/09 08:06:05;;;;;;;46.22;27.25;;;;;;;1.14;100.00;99508.25;5072549;28;20060;-72
2023/03/09 08:08:31;;;;;;;48.35;26.67;;;;;;;1.14;100.00;99521.50;5069477;28;20025;-73
2023/03/09 08:10:57;;;;;;;47.60;29.10;;;;;;;1.16;100.00;99519.63;5067422;28;20039;-72
2023/03/09 08:13:23;;;;;;;44.75;28.20;;;;;;;1.16;100.00;99522.28;5071444;28;20773;-72
2023/03/09 08:15:49;;;;;;;50.10;27.42;;;;;;;1.16;100.00;99527.56;5070278;28;20540;-72
2023/03/09 08:18:16;;;;;;;45.03;26.15;;;;;;;1.16;100.00;99539.00;5069453;28;20028;-72
2023/03/09 08:20:42;;;;;;;45.25;27.33;;;;;;;1.16;100.00;99548.75;5070557;28;20197;-72
2023/03/09 08:23:07;;;;;;;44.45;29.23;;;;;;;1.17;100.00;99542.50;5071725;28;20071;-72
2023/03/09 08:25:33;;;;;;;43.60;28.20;;;;;;;1.19;100.00;99536.19;5073997;28;20150;-72
2023/03/09 08:27:59;;;;;;;49.05;28.70;;;;;;;1.21;100.00;99536.09;5074291;28;20024;-72
2023/03/09 08:30:25;;;;;;;47.40;27.10;;;;;;;1.24;100.00;99535.91;5074295;28;20540;-72
2023/03/09 08:32:51;;;;;;;49.50;26.50;;;;;;;1.27;100.00;99550.78;5070388;28;20024;-72
2023/03/09 08:35:19;;;;;;;48.10;27.52;;;;;;;1.31;100.00;99550.53;5069780;28;20042;-72
2023/03/09 08:37:45;;;;;;;43.80;26.75;;;;;;;1.34;100.00;99560.09;5074183;28;20028;-72
2023/03/09 08:40:11;;;;;;;46.97;28.83;;;;;;;1.35;100.00;99560.00;5055863;28;20036;-72
2023/03/09 08:42:37;;;;;;;48.97;27.85;;;;;;;1.36;100.00;99567.00;5073739;28;20059;-72
2023/03/09 08:45:03;;;;;;;47.67;28.00;;;;;;;1.38;100.00;99569.56;5055554;28;20113;-72
2023/03/09 08:47:29;;;;;;;47.50;30.80;;;;;;;1.38;100.00;99567.78;5074076;28;20486;-72
2023/03/09 08:49:54;;;;;;;47.05;29.20;;;;;;;1.40;100.00;99557.94;5066031;28;20067;-72
2023/03/09 08:52:20;;;;;;;47.97;27.77;;;;;;;1.43;100.00;99582.53;5058693;28;20032;-72
2023/03/09 08:54:46;;;;;;;46.55;27.42;;;;;;;1.44;100.00;99586.91;5055624;28;20043;-72
2023/03/09 08:57:12;;;;;;;47.88;27.45;;;;;;;1.47;100.00;99598.16;5055852;28;20119;-72
2023/03/09 08:59:37;;;;;;;50.00;28.42;;;;;;;1.49;100.00;99598.94;5073804;28;20071;-72
2023/03/09 09:02:03;;;;;;;45.90;28.73;;;;;;;1.48;100.00;99591.06;5066696;28;20052;-72
2023/03/09 09:04:28;;;;;;;44.60;27.00;;;;;;;1.45;100.00;99592.13;5041641;28;20028;-72
2023/03/09 09:06:54;;;;;;;48.38;27.92;;;;;;;1.49;100.00;99600.72;5073866;28;20049;-72
2023/03/09 09:09:20;;;;;;;48.88;28.05;;;;;;;1.53;100.00;99603.13;5073036;28;20379;-72
2023/03/09 09:11:46;;;;;;;47.25;29.13;;;;;;;1.61;100.00;99607.13;5055395;28;20115;-72
2023/03/09 09:14:11;;;;;;;44.65;27.08;;;;;;;1.65;100.00;99621.91;5073495;28;20071;-72
2023/03/09 09:16:37;;;;;;;45.83;28.23;;;;;;;1.67;100.00;99620.91;5073420;28;20060;-72
2023/03/09 09:19:02;;;;;;;50.33;29.67;;;;;;;1.65;100.00;99620.09;5066774;28;20021;-72
2023/03/09 09:21:28;;;;;;;43.38;27.00;;;;;;;1.63;100.00;99610.56;5072932;28;20427;-72
2023/03/09 09:23:54;;;;;;;50.20;28.42;;;;;;;1.62;100.00;99599.09;5055423;28;20028;-72
2023/03/09 09:26:20;;;;;;;46.00;28.05;;;;;;;1.68;100.00;99606.69;5072628;28;20025;-72
2023/03/09 09:28:46;;;;;;;44.85;26.27;;;;;;;1.68;100.00;99614.63;5073185;28;20020;-72
2023/03/09 09:31:16;;;;;;;49.15;28.85;;;;;;;1.69;100.00;99608.41;5072954;28;20491;-72
2023/03/09 09:33:42;;;;;;;49.55;28.95;;;;;;;1.73;100.00;99617.06;5055322;28;20024;-73
2023/03/09 09:36:11;;;;;;;47.85;29.23;;;;;;;1.75;100.00;99618.66;5057842;28;20029;-72
2023/03/09 09:38:38;;;;;;;49.15;29.98;;;;;;;1.82;100.00;99631.56;5053166;28;20032;-72
2023/03/09 09:41:12;;;;;;;49.80;27.38;;;;;;;1.86;100.00;99628.66;5051451;28;20503;-72
2023/03/09 09:43:39;;;;;;;47.72;27.83;;;;;;;1.87;100.00;99630.34;5054887;28;20119;-72
2023/03/09 09:46:09;;;;;;;43.30;24.40;;;;;;;1.89;100.00;99630.28;5054923;28;20122;-72
2023/03/09 09:48:36;;;;;;;47.67;27.60;;;;;;;1.90;100.00;99637.28;5072866;28;20036;-72
2023/03/09 09:51:26;;;;;;;48.75;28.60;;;;;;;1.89;100.00;99638.22;5071061;28;20032;-72
2023/03/09 09:54:07;;;;;;;47.33;28.00;;;;;;;1.90;100.00;99637.28;5052932;28;20076;-72
2023/03/09 09:56:48;;;;;;;49.90;29.80;;;;;;;1.94;100.00;99628.22;5072388;28;20865;-72
2023/03/09 09:59:44;;;;;;;51.70;28.33;;;;;;;1.97;100.00;99629.84;5072493;28;20388;-73
2023/03/09 10:02:09;;;;;;;48.53;27.60;;;;;;;1.97;100.00;99630.69;5072283;28;20479;-72
2023/03/09 10:04:41;;;;;;;56.15;30.02;;;;;;;2.00;100.00;99632.31;5059613;28;20028;-72
2023/03/09 10:07:14;;;;;;;51.08;30.38;;;;;;;2.04;100.00;99632.03;5070201;28;20050;-72
2023/03/09 10:09:43;;;;;;;50.70;30.45;;;;;;;2.07;100.00;99637.16;5052939;28;20032;-72
2023/03/09 10:12:14;;;;;;;50.13;30.00;;;;;;;2.12;100.00;99638.69;5072539;28;20048;-72
2023/03/09 10:14:44;;;;;;;53.25;30.15;;;;;;;2.13;100.00;99641.25;5072494;28;20107;-72
2023/03/09 10:17:16;;;;;;;47.63;28.35;;;;;;;2.18;100.00;99640.97;5072399;28;20024;-72
2023/03/09 10:19:41;;;;;;;46.83;30.27;;;;;;;2.19;100.00;99640.88;5072116;28;20104;-72
2023/03/09 10:22:14;;;;;;;50.63;28.65;;;;;;;2.20;100.00;99641.75;5054424;28;20135;-72
2023/03/09 10:24:47;;;;;;;45.75;26.80;;;;;;;2.23;100.00;99641.59;5071885;28;20062;-72
2023/03/09 10:27:34;;;;;;;48.75;30.10;;;;;;;2.29;100.00;99630.63;5065231;28;20048;-72
2023/03/09 10:30:05;;;;;;;54.55;30.33;;;;;;;2.36;100.00;99631.97;5070636;28;20101;-72
2023/03/09 10:32:40;;;;;;;51.60;28.85;;;;;;;2.44;100.00;99631.50;5052577;28;20020;-72
2023/03/09 10:35:32;;;;;;;53.65;31.00;;;;;;;2.49;100.00;99628.56;5053773;28;20060;-72
2023/03/09 10:37:59;;;;;;;50.00;30.67;;;;;;;2.51;100.00;99629.34;5059987;28;20056;-72
2023/03/09 10:40:29;;;;;;;49.55;29.98;;;;;;;2.54;100.00;99635.31;5042323;28;20033;-72
2023/03/09 10:42:57;;;;;;;48.83;29.02;;;;;;;2.57;100.00;99636.94;5054250;28;20111;-72
2023/03/09 10:45:28;;;;;;;48.28;28.15;;;;;;;2.55;100.00;99637.03;5054035;28;20020;-73
2023/03/09 10:47:55;;;;;;;51.05;31.17;;;;;;;2.55;100.00;99638.84;5071013;28;20021;-72
2023/03/09 10:50:22;;;;;;;45.88;27.73;;;;;;;2.51;100.00;99646.13;5071743;28;20043;-72
2023/03/09 10:52:52;;;;;;;45.47;26.65;;;;;;;2.53;100.00;99648.66;5053775;28;20518;-72
2023/03/09 10:55:31;;;;;;;44.85;26.50;;;;;;;2.55;100.00;99639.69;5053386;28;20043;-72
2023/03/09 10:58:06;;;;;;;47.72;28.65;;;;;;;2.57;100.00;99632.47;5054099;28;20107;-72
2023/03/09 11:00:31;;;;;;;48.00;28.85;;;;;;;2.69;100.00;99638.84;5053993;28;20472;-72
2023/03/09 11:03:01;;;;;;;42.50;27.17;;;;;;;2.76;100.00;99628.72;5071874;28;20111;-72
2023/03/09 11:05:29;;;;;;;42.97;27.00;;;;;;;2.81;100.00;99626.63;5072027;28;20549;-74
2023/03/09 11:07:57;;;;;;;46.00;26.17;;;;;;;2.85;100.00;99644.09;5071671;28;20025;-75
2023/03/09 11:10:26;;;;;;;46.30;27.20;;;;;;;2.88;100.00;99643.06;5067323;28;20074;-75
2023/03/09 11:12:52;;;;;;;44.47;25.27;;;;;;;2.89;100.00;99644.75;5061559;28;20031;-75
2023/03/09 11:15:18;;;;;;;47.25;27.40;;;;;;;2.92;100.00;99641.91;5070921;28;20107;-75
2023/03/09 11:17:45;;;;;;;43.13;27.08;;;;;;;2.92;100.00;99636.63;5053191;28;20523;-75